createdAt,value
2022-11-28T00:00:56.842Z,9.30
2022-11-28T00:01:56.875Z,6.90
2022-11-28T00:02:57.039Z,5.90
2022-11-28T00:03:56.759Z,7.20
2022-11-28T00:04:56.730Z,6.70
2022-11-28T00:05:56.706Z,11.20
2022-11-28T00:06:56.674Z,9.20
2022-11-28T00:07:56.677Z,7.70
2022-11-28T00:08:56.627Z,5.80
2022-11-28T00:09:56.595Z,8.20
2022-11-28T00:10:56.566Z,8.50
2022-11-28T00:11:56.537Z,10.80
2022-11-28T00:12:56.509Z,8.50
2022-11-28T00:13:56.483Z,6.70
2022-11-28T00:14:56.452Z,8.80
2022-11-28T00:15:56.494Z,10.50
2022-11-28T00:16:56.398Z,8.50
2022-11-28T00:17:56.370Z,9.10
2022-11-28T00:18:56.455Z,8.10
2022-11-28T00:19:56.314Z,7.30
2022-11-28T00:20:56.284Z,5.80
2022-11-28T00:21:56.257Z,7.50
2022-11-28T00:22:56.233Z,8.00
2022-11-28T00:23:56.201Z,8.40
2022-11-28T00:24:56.174Z,8.20
2022-11-28T00:25:56.146Z,8.80
2022-11-28T00:26:56.121Z,10.00
2022-11-28T00:27:56.088Z,8.20
2022-11-28T00:28:56.062Z,6.40
2022-11-28T00:29:56.033Z,7.30
2022-11-28T00:30:56.010Z,6.50
2022-11-28T00:31:56.030Z,6.90
2022-11-28T00:32:55.951Z,9.10
2022-11-28T00:33:55.920Z,7.20
2022-11-28T00:34:56.009Z,7.50
2022-11-28T00:35:55.865Z,7.40
2022-11-28T00:36:55.837Z,7.10
2022-11-28T00:37:55.809Z,7.20
2022-11-28T00:38:55.784Z,7.30
2022-11-28T00:39:55.753Z,7.50
2022-11-28T00:40:55.726Z,6.60
2022-11-28T00:41:55.698Z,6.40
2022-11-28T00:42:55.674Z,7.00
2022-11-28T00:43:55.643Z,8.10
2022-11-28T00:44:55.616Z,7.90
2022-11-28T00:45:55.671Z,7.90
2022-11-28T00:46:55.561Z,7.40
2022-11-28T00:47:55.532Z,7.90
2022-11-28T00:48:55.506Z,9.20
2022-11-28T00:49:55.476Z,9.50
2022-11-28T00:50:55.569Z,7.60
2022-11-28T00:51:55.416Z,7.30
2022-11-28T00:52:55.392Z,7.90
2022-11-28T00:53:55.366Z,6.80
2022-11-28T00:54:55.337Z,7.40
2022-11-28T00:55:55.310Z,9.00
2022-11-28T00:56:55.282Z,8.60
2022-11-28T00:57:55.279Z,7.10
2022-11-28T00:58:55.225Z,6.80
2022-11-28T00:59:55.195Z,7.60
2022-11-28T01:00:55.193Z,7.00
2022-11-28T01:01:55.172Z,7.70
2022-11-28T01:02:55.118Z,6.40
2022-11-28T01:03:55.088Z,9.90
2022-11-28T01:04:55.055Z,8.00
2022-11-28T01:05:55.030Z,7.10
2022-11-28T01:06:55.114Z,6.90
2022-11-28T01:07:55.011Z,9.90
2022-11-28T01:08:54.945Z,7.30
2022-11-28T01:09:54.916Z,8.60
2022-11-28T01:10:54.889Z,7.40
2022-11-28T01:11:54.859Z,9.80
2022-11-28T01:12:54.833Z,9.10
2022-11-28T01:13:54.808Z,7.90
2022-11-28T01:14:54.779Z,6.10
2022-11-28T01:15:54.790Z,6.90
2022-11-28T01:16:54.723Z,8.70
2022-11-28T01:17:54.691Z,6.50
2022-11-28T01:18:54.673Z,10.30
2022-11-28T01:19:54.637Z,6.90
2022-11-28T01:20:54.609Z,8.50
2022-11-28T01:21:54.579Z,6.60
2022-11-28T01:22:54.671Z,8.60
2022-11-28T01:23:54.525Z,8.40
2022-11-28T01:24:54.498Z,8.10
2022-11-28T01:25:54.469Z,8.70
2022-11-28T01:26:54.443Z,8.10
2022-11-28T01:27:54.410Z,8.70
2022-11-28T01:28:54.386Z,8.40
2022-11-28T01:29:54.356Z,8.80
2022-11-28T01:30:54.331Z,6.20
2022-11-28T01:31:54.363Z,5.90
2022-11-28T01:32:54.277Z,6.40
2022-11-28T01:33:54.243Z,8.00
2022-11-28T01:34:54.218Z,6.40
2022-11-28T01:35:54.190Z,6.10
2022-11-28T01:36:54.161Z,7.30
2022-11-28T01:37:54.133Z,7.90
2022-11-28T01:38:54.220Z,7.20
2022-11-28T01:39:54.077Z,7.50
2022-11-28T01:40:54.050Z,7.20
2022-11-28T01:41:54.021Z,10.30
2022-11-28T01:42:53.995Z,7.60
2022-11-28T01:43:53.964Z,7.00
2022-11-28T01:44:53.937Z,9.40
2022-11-28T01:45:53.909Z,6.30
2022-11-28T01:46:53.952Z,7.30
2022-11-28T01:47:53.874Z,7.60
2022-11-28T01:48:53.828Z,9.00
2022-11-28T01:49:53.804Z,9.30
2022-11-28T01:50:53.769Z,9.50
2022-11-28T01:51:53.740Z,8.00
2022-11-28T01:52:53.716Z,8.00
2022-11-28T01:53:53.685Z,11.20
2022-11-28T01:54:53.781Z,7.40
2022-11-28T01:55:53.630Z,9.30
2022-11-28T01:56:53.601Z,9.10
2022-11-28T01:57:53.573Z,8.20
2022-11-28T01:58:53.548Z,8.30
2022-11-28T01:59:53.518Z,7.50
2022-11-28T02:00:53.540Z,9.80
2022-11-28T02:01:53.536Z,6.30
2022-11-28T02:02:53.436Z,7.50
2022-11-28T02:03:53.405Z,8.10
2022-11-28T02:04:53.383Z,7.90
2022-11-28T02:05:53.349Z,7.50
2022-11-28T02:06:53.324Z,8.70
2022-11-28T02:07:53.353Z,8.60
2022-11-28T02:08:53.266Z,7.80
2022-11-28T02:09:53.240Z,9.70
2022-11-28T02:10:53.334Z,7.90
2022-11-28T02:11:53.183Z,9.40
2022-11-28T02:12:53.155Z,9.90
2022-11-28T02:13:53.128Z,8.40
2022-11-28T02:14:53.100Z,7.10
2022-11-28T02:15:53.197Z,11.00
2022-11-28T02:16:53.045Z,8.00
2022-11-28T02:17:53.019Z,6.60
2022-11-28T02:18:52.992Z,10.10
2022-11-28T02:19:52.961Z,9.30
2022-11-28T02:20:52.933Z,7.60
2022-11-28T02:21:52.907Z,7.30
2022-11-28T02:22:52.879Z,8.90
2022-11-28T02:23:52.847Z,8.20
2022-11-28T02:24:52.820Z,11.50
2022-11-28T02:25:52.794Z,8.00
2022-11-28T02:26:52.881Z,10.10
2022-11-28T02:27:52.734Z,8.10
2022-11-28T02:28:52.714Z,9.40
2022-11-28T02:29:52.681Z,8.00
2022-11-28T02:30:52.655Z,8.90
2022-11-28T02:31:52.777Z,8.90
2022-11-28T02:32:52.597Z,8.50
2022-11-28T02:33:52.572Z,8.80
2022-11-28T02:34:52.899Z,11.00
2022-11-28T02:35:52.514Z,9.20
2022-11-28T02:36:52.487Z,7.00
2022-11-28T02:37:52.459Z,10.70
2022-11-28T02:38:52.433Z,7.60
2022-11-28T02:39:52.401Z,9.10
2022-11-28T02:40:52.376Z,7.60
2022-11-28T02:41:52.348Z,8.50
2022-11-28T02:42:52.434Z,9.60
2022-11-28T02:43:52.290Z,8.60
2022-11-28T02:44:52.264Z,7.80
2022-11-28T02:45:52.235Z,6.80
2022-11-28T02:46:52.257Z,8.30
2022-11-28T02:47:52.180Z,9.90
2022-11-28T02:48:52.153Z,8.80
2022-11-28T02:49:52.126Z,7.60
2022-11-28T02:50:52.100Z,9.00
2022-11-28T02:51:52.069Z,8.20
2022-11-28T02:52:52.045Z,9.40
2022-11-28T02:53:52.015Z,8.80
2022-11-28T02:54:51.990Z,8.30
2022-11-28T02:55:51.962Z,8.80
2022-11-28T02:56:51.935Z,7.80
2022-11-28T02:57:51.902Z,9.80
2022-11-28T02:58:51.989Z,11.00
2022-11-28T02:59:51.854Z,8.40
2022-11-28T03:00:51.870Z,11.60
2022-11-28T03:01:51.860Z,8.30
2022-11-28T03:02:51.765Z,9.00
2022-11-28T03:03:51.736Z,7.00
2022-11-28T03:04:51.708Z,7.90
2022-11-28T03:05:51.679Z,10.30
2022-11-28T03:06:51.656Z,8.20
2022-11-28T03:07:51.678Z,7.80
2022-11-28T03:08:51.598Z,8.60
2022-11-28T03:09:51.575Z,7.30
2022-11-28T03:10:51.543Z,8.20
2022-11-28T03:11:51.512Z,9.40
2022-11-28T03:12:51.486Z,8.60
2022-11-28T03:13:51.459Z,6.70
2022-11-28T03:14:51.543Z,9.10
2022-11-28T03:15:51.474Z,7.40
2022-11-28T03:16:51.376Z,7.50
2022-11-28T03:17:51.347Z,7.90
2022-11-28T03:18:51.321Z,8.30
2022-11-28T03:19:51.292Z,9.10
2022-11-28T03:20:51.268Z,9.90
2022-11-28T03:21:51.239Z,8.10
2022-11-28T03:22:51.209Z,7.90
2022-11-28T03:23:51.181Z,7.70
2022-11-28T03:24:51.155Z,7.50
2022-11-28T03:25:51.132Z,11.00
2022-11-28T03:26:51.100Z,9.50
2022-11-28T03:27:51.067Z,6.10
2022-11-28T03:28:51.041Z,8.10
2022-11-28T03:29:51.014Z,7.00
2022-11-28T03:30:51.101Z,9.10
2022-11-28T03:31:51.003Z,6.30
2022-11-28T03:32:50.932Z,10.60
2022-11-28T03:33:50.905Z,8.00
2022-11-28T03:34:50.878Z,8.50
2022-11-28T03:35:50.848Z,6.30
2022-11-28T03:36:50.821Z,8.60
2022-11-28T03:37:50.794Z,7.80
2022-11-28T03:38:50.768Z,7.20
2022-11-28T03:39:50.738Z,8.50
2022-11-28T03:40:50.712Z,9.70
2022-11-28T03:41:50.682Z,7.40
2022-11-28T03:42:50.658Z,7.90
2022-11-28T03:43:50.627Z,7.80
2022-11-28T03:44:50.600Z,11.30
2022-11-28T03:45:50.572Z,8.90
2022-11-28T03:46:50.750Z,9.80
2022-11-28T03:47:50.521Z,9.90
2022-11-28T03:48:50.491Z,9.40
2022-11-28T03:49:50.468Z,8.40
2022-11-28T03:50:50.439Z,9.50
2022-11-28T03:51:50.407Z,11.90
2022-11-28T03:52:50.383Z,8.40
2022-11-28T03:53:50.351Z,9.40
2022-11-28T03:54:50.324Z,11.80
2022-11-28T03:55:50.355Z,7.90
2022-11-28T03:56:50.270Z,8.30
2022-11-28T03:57:50.241Z,10.20
2022-11-28T03:58:50.217Z,8.30
2022-11-28T03:59:50.187Z,8.90
2022-11-28T04:00:50.198Z,9.30
2022-11-28T04:01:50.139Z,9.40
2022-11-28T04:02:50.311Z,8.10
2022-11-28T04:03:50.074Z,11.00
2022-11-28T04:04:50.048Z,8.80
2022-11-28T04:05:50.018Z,8.90
2022-11-28T04:06:49.996Z,9.80
2022-11-28T04:07:49.981Z,10.50
2022-11-28T04:08:49.939Z,10.30
2022-11-28T04:09:49.909Z,12.10
2022-11-28T04:10:49.882Z,9.50
2022-11-28T04:11:49.854Z,10.30
2022-11-28T04:12:49.834Z,9.90
2022-11-28T04:13:49.796Z,10.20
2022-11-28T04:14:49.771Z,7.90
2022-11-28T04:15:49.742Z,10.10
2022-11-28T04:16:53.804Z,9.90
2022-11-28T04:17:49.689Z,7.80
2022-11-28T04:18:49.774Z,10.10
2022-11-28T04:19:49.635Z,11.30
2022-11-28T04:20:49.606Z,9.90
2022-11-28T04:21:49.578Z,12.70
2022-11-28T04:22:49.554Z,10.60
2022-11-28T04:23:49.526Z,10.20
2022-11-28T04:24:49.494Z,10.50
2022-11-28T04:25:49.467Z,11.90
2022-11-28T04:26:49.444Z,10.80
2022-11-28T04:27:49.409Z,12.20
2022-11-28T04:28:49.386Z,12.10
2022-11-28T04:29:49.354Z,10.50
2022-11-28T04:30:49.328Z,11.00
2022-11-28T04:31:49.382Z,9.10
2022-11-28T04:32:49.270Z,11.30
2022-11-28T04:33:49.245Z,11.20
2022-11-28T04:34:49.332Z,11.40
2022-11-28T04:35:49.188Z,11.00
2022-11-28T04:36:49.163Z,11.80
2022-11-28T04:37:49.135Z,12.40
2022-11-28T04:38:49.105Z,10.90
2022-11-28T04:39:49.079Z,11.60
2022-11-28T04:40:49.049Z,10.70
2022-11-28T04:41:49.025Z,9.80
2022-11-28T04:42:52.817Z,11.50
2022-11-28T04:43:48.968Z,9.10
2022-11-28T04:44:48.938Z,9.70
2022-11-28T04:45:48.943Z,12.90
2022-11-28T04:46:48.884Z,9.60
2022-11-28T04:47:48.857Z,10.70
2022-11-28T04:48:48.828Z,12.60
2022-11-28T04:49:48.801Z,9.70
2022-11-28T04:50:48.885Z,9.20
2022-11-28T04:51:48.745Z,10.60
2022-11-28T04:52:48.716Z,10.30
2022-11-28T04:53:48.694Z,10.30
2022-11-28T04:54:48.663Z,10.30
2022-11-28T04:55:48.660Z,14.10
2022-11-28T04:56:48.611Z,12.60
2022-11-28T04:57:51.742Z,12.80
2022-11-28T04:58:48.552Z,10.80
2022-11-28T04:59:48.523Z,11.80
2022-11-28T05:00:48.563Z,12.10
2022-11-28T05:01:48.519Z,12.20
2022-11-28T05:02:48.440Z,9.90
2022-11-28T05:03:48.413Z,12.90
2022-11-28T05:04:48.382Z,13.20
2022-11-28T05:05:48.358Z,11.70
2022-11-28T05:06:48.439Z,11.60
2022-11-28T05:07:48.401Z,9.50
2022-11-28T05:08:48.272Z,11.90
2022-11-28T05:09:48.248Z,12.50
2022-11-28T05:10:48.222Z,12.60
2022-11-28T05:11:48.195Z,10.90
2022-11-28T05:12:48.163Z,10.50
2022-11-28T05:13:48.136Z,10.10
2022-11-28T05:14:48.455Z,9.30
2022-11-28T05:15:48.195Z,11.50
2022-11-28T05:16:48.105Z,10.30
2022-11-28T05:17:48.028Z,10.20
2022-11-28T05:18:47.998Z,12.60
2022-11-28T05:19:47.970Z,10.70
2022-11-28T05:20:47.945Z,10.80
2022-11-28T05:21:47.914Z,10.90
2022-11-28T05:22:48.001Z,9.20
2022-11-28T05:23:47.857Z,10.60
2022-11-28T05:24:47.833Z,11.10
2022-11-28T05:25:47.805Z,10.60
2022-11-28T05:26:47.774Z,9.60
2022-11-28T05:27:47.748Z,10.80
2022-11-28T05:28:47.727Z,9.10
2022-11-28T05:29:52.111Z,8.90
2022-11-28T05:30:47.672Z,8.90
2022-11-28T05:31:47.744Z,9.30
2022-11-28T05:32:47.616Z,10.20
2022-11-28T05:33:47.599Z,10.20
2022-11-28T05:34:47.557Z,10.50
2022-11-28T05:35:47.528Z,10.90
2022-11-28T05:36:47.496Z,12.00
2022-11-28T05:37:47.470Z,9.80
2022-11-28T05:38:47.466Z,10.40
2022-11-28T05:39:47.417Z,10.40
2022-11-28T05:40:47.386Z,11.30
2022-11-28T05:41:47.360Z,11.70
2022-11-28T05:42:47.332Z,8.90
2022-11-28T05:43:47.306Z,10.60
2022-11-28T05:44:47.275Z,10.40
2022-11-28T05:45:47.347Z,10.20
2022-11-28T05:46:47.224Z,11.30
2022-11-28T05:47:47.195Z,10.90
2022-11-28T05:48:47.171Z,9.90
2022-11-28T05:49:47.137Z,8.70
2022-11-28T05:50:47.110Z,8.10
2022-11-28T05:51:47.083Z,10.20
2022-11-28T05:52:47.055Z,10.10
2022-11-28T05:53:47.028Z,10.80
2022-11-28T05:54:47.120Z,13.90
2022-11-28T05:55:46.975Z,9.70
2022-11-28T05:56:46.946Z,10.10
2022-11-28T05:57:46.919Z,13.10
2022-11-28T05:58:46.889Z,10.70
2022-11-28T05:59:46.862Z,11.20
2022-11-28T06:00:46.833Z,11.80
2022-11-28T06:01:46.839Z,9.70
2022-11-28T06:02:46.867Z,9.70
2022-11-28T06:03:46.751Z,9.50
2022-11-28T06:04:46.802Z,9.30
2022-11-28T06:05:46.757Z,11.40
2022-11-28T06:06:46.665Z,13.50
2022-11-28T06:07:46.703Z,12.10
2022-11-28T06:08:46.611Z,13.90
2022-11-28T06:09:46.584Z,10.10
2022-11-28T06:10:46.671Z,11.60
2022-11-28T06:11:46.558Z,11.70
2022-11-28T06:12:46.500Z,12.50
2022-11-28T06:13:46.472Z,13.20
2022-11-28T06:14:46.447Z,12.40
2022-11-28T06:15:46.419Z,16.80
2022-11-28T06:16:46.481Z,14.20
2022-11-28T06:17:46.366Z,15.90
2022-11-28T06:18:46.339Z,11.90
2022-11-28T06:19:46.311Z,11.60
2022-11-28T06:20:46.286Z,13.10
2022-11-28T06:21:46.252Z,13.90
2022-11-28T06:22:46.223Z,13.10
2022-11-28T06:23:46.199Z,12.30
2022-11-28T06:24:46.169Z,11.00
2022-11-28T06:25:46.141Z,13.10
2022-11-28T06:26:46.228Z,12.30
2022-11-28T06:27:46.088Z,14.10
2022-11-28T06:28:46.060Z,11.20
2022-11-28T06:29:46.031Z,11.10
2022-11-28T06:30:46.004Z,9.50
2022-11-28T06:31:46.049Z,9.80
2022-11-28T06:32:45.947Z,10.30
2022-11-28T06:33:45.919Z,9.00
2022-11-28T06:34:45.892Z,11.60
2022-11-28T06:35:45.871Z,9.60
2022-11-28T06:36:45.841Z,13.90
2022-11-28T06:37:45.811Z,10.70
2022-11-28T06:38:45.787Z,13.50
2022-11-28T06:39:45.756Z,12.70
2022-11-28T06:40:45.727Z,9.60
2022-11-28T06:41:45.702Z,12.80
2022-11-28T06:42:45.793Z,10.10
2022-11-28T06:43:45.645Z,9.60
2022-11-28T06:44:45.618Z,8.50
2022-11-28T06:45:45.652Z,13.00
2022-11-28T06:46:45.565Z,11.90
2022-11-28T06:47:45.537Z,11.40
2022-11-28T06:48:45.511Z,9.70
2022-11-28T06:49:45.596Z,12.10
2022-11-28T06:50:45.453Z,10.20
2022-11-28T06:51:45.423Z,12.70
2022-11-28T06:52:45.396Z,10.80
2022-11-28T06:53:45.369Z,9.70
2022-11-28T06:54:45.338Z,10.50
2022-11-28T06:55:45.311Z,12.30
2022-11-28T06:56:45.288Z,10.00
2022-11-28T06:57:45.258Z,11.10
2022-11-28T06:58:45.353Z,11.60
2022-11-28T06:59:45.375Z,12.50
2022-11-28T07:00:45.229Z,9.40
2022-11-28T07:01:45.356Z,11.30
2022-11-28T07:02:45.181Z,10.60
2022-11-28T07:03:45.098Z,9.60
2022-11-28T07:04:45.068Z,12.90
2022-11-28T07:05:45.106Z,13.40
2022-11-28T07:06:45.011Z,11.20
2022-11-28T07:07:53.762Z,11.20
2022-11-28T07:08:44.952Z,9.30
2022-11-28T07:09:45.291Z,9.80
2022-11-28T07:10:44.899Z,8.80
2022-11-28T07:11:44.870Z,12.30
2022-11-28T07:12:44.841Z,8.60
2022-11-28T07:13:44.814Z,11.40
2022-11-28T07:14:44.895Z,11.60
2022-11-28T07:15:44.759Z,11.10
2022-11-28T07:16:44.814Z,10.60
2022-11-28T07:17:44.708Z,10.10
2022-11-28T07:18:44.675Z,11.90
2022-11-28T07:19:46.374Z,11.40
2022-11-28T07:20:44.619Z,11.00
2022-11-28T07:21:44.602Z,10.20
2022-11-28T07:22:44.568Z,9.70
2022-11-28T07:23:44.538Z,10.20
2022-11-28T07:24:44.511Z,11.10
2022-11-28T07:25:44.483Z,12.00
2022-11-28T07:26:44.455Z,11.20
2022-11-28T07:27:44.428Z,11.50
2022-11-28T07:28:44.405Z,11.10
2022-11-28T07:29:44.666Z,10.50
2022-11-28T07:30:44.361Z,10.40
2022-11-28T07:31:44.364Z,10.60
2022-11-28T07:32:44.292Z,14.00
2022-11-28T07:33:44.261Z,12.70
2022-11-28T07:34:48.891Z,15.00
2022-11-28T07:35:44.206Z,10.40
2022-11-28T07:36:44.177Z,12.00
2022-11-28T07:37:44.151Z,12.50
2022-11-28T07:38:44.128Z,11.90
2022-11-28T07:39:44.464Z,10.90
2022-11-28T07:40:44.064Z,9.80
2022-11-28T07:41:44.046Z,12.70
2022-11-28T07:42:44.121Z,11.70
2022-11-28T07:43:43.983Z,14.20
2022-11-28T07:44:43.954Z,12.10
2022-11-28T07:45:59.955Z,13.30
2022-11-28T07:46:43.965Z,10.80
2022-11-28T07:47:44.020Z,14.20
2022-11-28T07:48:43.848Z,11.40
2022-11-28T07:49:44.352Z,13.40
2022-11-28T07:50:43.794Z,11.80
2022-11-28T07:51:43.765Z,12.10
2022-11-28T07:52:43.737Z,13.20
2022-11-28T07:53:43.712Z,11.30
2022-11-28T07:54:43.684Z,11.80
2022-11-28T07:55:43.671Z,12.60
2022-11-28T07:57:11.566Z,12.30
2022-11-28T07:57:43.620Z,11.00
2022-11-28T07:58:43.585Z,12.30
2022-11-28T07:59:43.955Z,12.60
2022-11-28T08:00:43.515Z,12.50
2022-11-28T08:01:43.530Z,13.30
2022-11-28T08:02:43.475Z,12.50
2022-11-28T08:03:43.435Z,13.00
2022-11-28T08:04:48.606Z,14.00
2022-11-28T08:05:43.378Z,11.60
2022-11-28T08:06:43.350Z,11.40
2022-11-28T08:07:43.394Z,15.00
2022-11-28T08:08:43.293Z,13.40
2022-11-28T08:09:43.517Z,13.30
2022-11-28T08:10:43.239Z,13.80
2022-11-28T08:11:43.214Z,12.10
2022-11-28T08:12:43.184Z,11.00
2022-11-28T08:13:43.161Z,11.70
2022-11-28T08:14:43.229Z,13.70
2022-11-28T08:15:43.103Z,12.30
2022-11-28T08:16:43.132Z,12.70
2022-11-28T08:17:43.047Z,11.70
2022-11-28T08:18:43.056Z,12.40
2022-11-28T08:19:42.990Z,13.30
2022-11-28T08:20:42.963Z,12.50
2022-11-28T08:21:42.938Z,13.40
2022-11-28T08:22:42.908Z,10.40
2022-11-28T08:23:42.884Z,10.70
2022-11-28T08:24:43.017Z,12.80
2022-11-28T08:25:42.827Z,13.30
2022-11-28T08:26:42.798Z,13.70
2022-11-28T08:27:42.771Z,13.30
2022-11-28T08:28:42.745Z,11.20
2022-11-28T08:29:43.085Z,12.10
2022-11-28T08:30:42.747Z,15.60
2022-11-28T08:31:42.660Z,10.80
2022-11-28T08:32:42.629Z,14.10
2022-11-28T08:33:42.608Z,12.70
2022-11-28T08:34:42.614Z,11.80
2022-11-28T08:35:42.549Z,12.30
2022-11-28T08:36:42.522Z,12.20
2022-11-28T08:37:42.495Z,12.10
2022-11-28T08:38:46.995Z,14.10
2022-11-28T08:39:42.669Z,11.60
2022-11-28T08:40:42.412Z,11.20
2022-11-28T08:41:42.390Z,11.70
2022-11-28T08:42:42.357Z,13.50
2022-11-28T08:43:42.330Z,13.00
2022-11-28T08:44:42.838Z,13.90
2022-11-28T08:45:42.302Z,12.30
2022-11-28T08:46:42.251Z,13.40
2022-11-28T08:47:42.220Z,11.50
2022-11-28T08:48:42.272Z,12.00
2022-11-28T08:49:42.651Z,11.50
2022-11-28T08:50:46.698Z,13.10
2022-11-28T08:51:42.118Z,12.20
2022-11-28T08:52:42.083Z,10.40
2022-11-28T08:53:44.974Z,12.90
2022-11-28T08:54:42.324Z,9.90
2022-11-28T08:55:42.105Z,13.60
2022-11-28T08:56:41.976Z,15.20
2022-11-28T08:57:41.947Z,11.90
2022-11-28T08:58:41.920Z,13.70
2022-11-28T08:59:42.207Z,12.10
2022-11-28T09:00:41.863Z,12.90
2022-11-28T09:01:41.983Z,12.30
2022-11-28T09:02:41.893Z,10.80
2022-11-28T09:03:41.946Z,12.50
2022-11-28T09:04:41.833Z,11.70
2022-11-28T09:05:41.796Z,13.60
2022-11-28T09:06:41.842Z,14.10
2022-11-28T09:07:41.788Z,13.50
2022-11-28T09:08:41.662Z,12.10
2022-11-28T09:09:41.622Z,11.20
2022-11-28T09:10:41.653Z,12.40
2022-11-28T09:11:41.615Z,12.40
2022-11-28T09:12:41.603Z,11.60
2022-11-28T09:13:41.520Z,12.10
2022-11-28T09:14:41.503Z,12.80
2022-11-28T09:15:41.505Z,11.80
2022-11-28T09:16:41.566Z,11.30
2022-11-28T09:17:41.444Z,15.70
2022-11-28T09:18:41.430Z,14.50
2022-11-28T09:19:41.791Z,11.80
2022-11-28T09:20:41.344Z,17.00
2022-11-28T09:21:41.354Z,13.80
2022-11-28T09:22:41.315Z,11.20
2022-11-28T09:23:41.384Z,12.90
2022-11-28T09:24:41.243Z,11.00
2022-11-28T09:25:41.305Z,12.50
2022-11-28T09:26:41.195Z,10.50
2022-11-28T09:27:41.190Z,12.40
2022-11-28T09:28:41.121Z,12.10
2022-11-28T09:29:41.531Z,12.60
2022-11-28T09:30:41.129Z,15.70
2022-11-28T09:31:45.941Z,16.80
2022-11-28T09:32:41.062Z,13.10
2022-11-28T09:33:40.994Z,14.50
2022-11-28T09:34:40.986Z,15.10
2022-11-28T09:35:40.923Z,16.50
2022-11-28T09:36:41.028Z,13.50
2022-11-28T09:37:40.847Z,14.00
2022-11-28T09:38:41.160Z,14.30
2022-11-28T09:39:57.355Z,13.90
2022-11-28T09:40:40.765Z,11.80
2022-11-28T09:41:40.737Z,12.00
2022-11-28T09:42:40.721Z,11.40
2022-11-28T09:43:40.775Z,12.10
2022-11-28T09:44:40.760Z,12.70
2022-11-28T09:45:40.721Z,12.20
2022-11-28T09:46:40.746Z,13.30
2022-11-28T09:47:40.653Z,16.40
2022-11-28T09:48:40.667Z,15.30
2022-11-28T09:49:41.528Z,13.10
2022-11-28T09:50:40.491Z,15.00
2022-11-28T09:51:40.471Z,12.60
2022-11-28T09:52:40.508Z,14.00
2022-11-28T09:53:40.432Z,15.20
2022-11-28T09:54:40.422Z,13.70
2022-11-28T09:55:40.367Z,16.80
2022-11-28T09:56:40.339Z,17.70
2022-11-28T09:57:40.338Z,16.00
2022-11-28T09:58:40.282Z,12.40
2022-11-28T09:59:40.698Z,15.10
2022-11-28T10:00:40.228Z,14.80
2022-11-28T10:01:40.207Z,17.00
2022-11-28T10:02:40.219Z,13.40
2022-11-28T10:03:40.235Z,12.10
2022-11-28T10:04:40.198Z,13.60
2022-11-28T10:05:40.096Z,14.80
2022-11-28T10:06:40.072Z,14.90
2022-11-28T10:07:40.121Z,13.30
2022-11-28T10:08:40.008Z,16.20
2022-11-28T10:09:40.420Z,15.20
2022-11-28T10:10:39.964Z,14.60
2022-11-28T10:11:39.930Z,14.10
2022-11-28T10:12:39.926Z,11.40
2022-11-28T10:14:05.970Z,15.10
2022-11-28T10:14:39.857Z,16.20
2022-11-28T10:15:39.818Z,18.50
2022-11-28T10:16:39.861Z,16.20
2022-11-28T10:17:39.768Z,16.30
2022-11-28T10:18:39.733Z,15.70
2022-11-28T10:19:53.888Z,13.50
2022-11-28T10:20:39.685Z,17.10
2022-11-28T10:21:39.643Z,15.40
2022-11-28T10:22:39.649Z,18.50
2022-11-28T10:23:39.617Z,23.90
2022-11-28T10:24:39.572Z,19.50
2022-11-28T10:25:39.541Z,17.50
2022-11-28T10:26:39.542Z,16.60
2022-11-28T10:27:39.480Z,20.10
2022-11-28T10:28:39.508Z,17.40
2022-11-28T10:29:39.431Z,20.70
2022-11-28T10:30:39.454Z,15.90
2022-11-28T10:31:39.376Z,17.10
2022-11-28T10:32:39.344Z,15.60
2022-11-28T10:33:39.318Z,16.50
2022-11-28T10:34:39.295Z,16.60
2022-11-28T10:35:39.262Z,17.60
2022-11-28T10:36:39.238Z,14.40
2022-11-28T10:37:39.209Z,16.30
2022-11-28T10:38:39.187Z,16.10
2022-11-28T10:39:39.156Z,13.30
2022-11-28T10:40:39.130Z,13.30
2022-11-28T10:41:39.114Z,15.60
2022-11-28T10:42:39.094Z,16.60
2022-11-28T10:43:39.049Z,18.40
2022-11-28T10:44:39.083Z,14.60
2022-11-28T10:45:38.999Z,14.60
2022-11-28T10:46:39.031Z,14.80
2022-11-28T10:47:38.938Z,15.70
2022-11-28T10:48:40.698Z,14.20
2022-11-28T10:49:38.883Z,14.80
2022-11-28T10:50:38.857Z,14.00
2022-11-28T10:51:38.828Z,15.20
2022-11-28T10:52:38.807Z,16.50
2022-11-28T10:53:38.776Z,13.30
2022-11-28T10:54:38.751Z,13.70
2022-11-28T10:55:38.721Z,13.90
2022-11-28T10:56:38.698Z,12.40
2022-11-28T10:57:38.668Z,13.10
2022-11-28T10:58:38.666Z,13.10
2022-11-28T10:59:38.613Z,13.20
2022-11-28T11:00:38.590Z,13.60
2022-11-28T11:01:38.723Z,15.60
2022-11-28T11:02:38.537Z,15.90
2022-11-28T11:03:38.507Z,14.60
2022-11-28T11:04:38.589Z,13.40
2022-11-28T11:05:38.456Z,12.10
2022-11-28T11:06:47.761Z,13.80
2022-11-28T11:07:38.434Z,11.50
2022-11-28T11:08:38.377Z,13.50
2022-11-28T11:09:38.354Z,13.60
2022-11-28T11:10:38.319Z,15.10
2022-11-28T11:11:38.291Z,14.00
2022-11-28T11:12:38.266Z,14.10
2022-11-28T11:13:38.236Z,13.80
2022-11-28T11:14:38.236Z,13.80
2022-11-28T11:15:38.229Z,16.30
2022-11-28T11:16:38.216Z,12.30
2022-11-28T11:17:38.135Z,17.60
2022-11-28T11:18:38.103Z,14.20
2022-11-28T11:19:38.074Z,12.80
2022-11-28T11:20:38.051Z,12.80
2022-11-28T11:21:38.021Z,11.60
2022-11-28T11:22:37.998Z,11.60
2022-11-28T11:23:38.608Z,15.50
2022-11-28T11:24:37.941Z,11.40
2022-11-28T11:25:37.912Z,12.90
2022-11-28T11:26:37.885Z,10.50
2022-11-28T11:27:37.859Z,13.90
2022-11-28T11:28:37.831Z,13.20
2022-11-28T11:29:37.803Z,12.10
2022-11-28T11:30:37.834Z,16.80
2022-11-28T11:31:37.750Z,13.60
2022-11-28T11:32:37.724Z,11.20
2022-11-28T11:33:37.696Z,10.90
2022-11-28T11:34:37.671Z,13.00
2022-11-28T11:35:37.643Z,12.90
2022-11-28T11:36:37.620Z,14.00
2022-11-28T11:37:37.596Z,12.90
2022-11-28T11:38:38.172Z,13.30
2022-11-28T11:39:37.534Z,12.40
2022-11-28T11:40:37.510Z,13.10
2022-11-28T11:41:37.482Z,12.50
2022-11-28T11:42:37.457Z,14.10
2022-11-28T11:43:37.427Z,12.20
2022-11-28T11:44:37.403Z,12.80
2022-11-28T11:45:37.432Z,11.80
2022-11-28T11:46:37.491Z,17.20
2022-11-28T11:47:37.321Z,14.20
2022-11-28T11:48:37.292Z,18.40
2022-11-28T11:49:37.270Z,12.00
2022-11-28T11:50:37.244Z,11.60
2022-11-28T11:51:39.475Z,15.20
2022-11-28T11:52:37.185Z,14.40
2022-11-28T11:53:37.158Z,15.50
2022-11-28T11:54:37.132Z,13.40
2022-11-28T11:55:37.103Z,12.30
2022-11-28T11:56:37.078Z,12.80
2022-11-28T11:57:37.049Z,14.30
2022-11-28T11:58:37.023Z,13.60
2022-11-28T11:59:37.001Z,12.20
2022-11-28T12:00:37.082Z,15.50
2022-11-28T12:01:36.942Z,15.10
2022-11-28T12:02:37.159Z,15.10
2022-11-28T12:03:37.096Z,14.30
2022-11-28T12:04:46.313Z,15.80
2022-11-28T12:05:52.721Z,13.20
2022-11-28T12:06:36.823Z,12.80
2022-11-28T12:07:36.852Z,13.50
2022-11-28T12:08:36.757Z,12.30
2022-11-28T12:09:36.725Z,13.00
2022-11-28T12:10:36.702Z,18.60
2022-11-28T12:11:36.675Z,13.50
2022-11-28T12:12:36.649Z,14.40
2022-11-28T12:13:36.617Z,13.50
2022-11-28T12:14:36.601Z,14.00
2022-11-28T12:15:36.619Z,15.00
2022-11-28T12:16:36.623Z,14.50
2022-11-28T12:17:57.164Z,15.40
2022-11-28T12:18:36.509Z,16.40
2022-11-28T12:19:36.475Z,18.30
2022-11-28T12:20:36.432Z,17.30
2022-11-28T12:21:36.403Z,20.10
2022-11-28T12:22:36.380Z,15.40
2022-11-28T12:23:36.351Z,19.00
2022-11-28T12:24:36.326Z,16.40
2022-11-28T12:25:36.296Z,13.70
2022-11-28T12:26:36.273Z,15.50
2022-11-28T12:27:36.247Z,13.50
2022-11-28T12:28:36.223Z,14.30
2022-11-28T12:29:36.191Z,13.70
2022-11-28T12:30:39.113Z,18.10
2022-11-28T12:31:36.184Z,15.50
2022-11-28T12:32:36.107Z,18.60
2022-11-28T12:33:36.098Z,16.80
2022-11-28T12:34:36.076Z,20.40
2022-11-28T12:35:36.027Z,41.80
2022-11-28T12:36:36.008Z,31.60
2022-11-28T12:38:02.592Z,45.20
2022-11-28T12:38:35.953Z,42.30
2022-11-28T12:39:35.924Z,37.20
2022-11-28T12:40:35.893Z,36.60
2022-11-28T12:41:35.865Z,33.10
2022-11-28T12:42:35.848Z,23.00
2022-11-28T12:43:35.814Z,17.50
2022-11-28T12:44:35.785Z,15.10
2022-11-28T12:45:35.758Z,21.30
2022-11-28T12:46:35.775Z,19.00
2022-11-28T12:47:35.706Z,17.00
2022-11-28T12:48:35.676Z,17.30
2022-11-28T12:49:35.652Z,16.80
2022-11-28T12:50:35.650Z,14.20
2022-11-28T12:51:35.596Z,18.50
2022-11-28T12:52:35.578Z,17.60
2022-11-28T12:53:35.544Z,19.20
2022-11-28T12:54:35.517Z,15.80
2022-11-28T12:55:35.499Z,21.00
2022-11-28T12:56:35.458Z,16.00
2022-11-28T12:57:35.434Z,21.40
2022-11-28T12:58:35.409Z,17.00
2022-11-28T12:59:35.385Z,20.60
2022-11-28T13:00:35.366Z,19.80
2022-11-28T13:01:35.450Z,16.60